Time;durP1;ratioP1;P1;durP2;ratioP2;P2;SDS_P1;SDS_P2;PMS_P1;PMS_P2;Temp;Humidity;BMP_temperature;BMP_pressure;BME280_temperature;BME280_humidity;BME280_pressure;Samples;Min_cycle;Max_cycle;Signal;HPM_P1;HPM_P2
2023/04/16 00:00:20;;;;;;;37.83;24.10;;;;;;;8.07;100.00;101884.81;5024107;28;20205;-68
2023/04/16 00:02:46;;;;;;;39.47;25.70;;;;;;;8.04;100.00;101888.09;5021686;28;20199;-67
2023/04/16 00:05:13;;;;;;;36.43;26.27;;;;;;;8.03;100.00;101888.91;5025970;28;20675;-67
2023/04/16 00:07:38;;;;;;;35.37;24.23;;;;;;;8.08;100.00;101884.00;5023034;28;20214;-67
2023/04/16 00:10:05;;;;;;;38.00;26.70;;;;;;;8.02;100.00;101884.59;5024925;28;20208;-66
2023/04/16 00:12:30;;;;;;;39.90;25.00;;;;;;;8.03;100.00;101885.47;5025674;28;20281;-67
2023/04/16 00:14:55;;;;;;;33.10;24.03;;;;;;;8.09;100.00;101886.63;5027804;28;20288;-66
2023/04/16 00:17:21;;;;;;;34.90;23.43;;;;;;;8.11;100.00;101886.69;5026207;28;20225;-68
2023/04/16 00:19:46;;;;;;;39.30;24.83;;;;;;;8.13;100.00;101885.97;5020129;28;20284;-67
2023/04/16 00:22:12;;;;;;;35.83;22.07;;;;;;;8.13;100.00;101885.09;5024802;28;20615;-66
2023/04/16 00:24:37;;;;;;;36.83;24.63;;;;;;;8.11;100.00;101884.16;5019706;28;20199;-68
2023/04/16 00:27:02;;;;;;;31.97;22.70;;;;;;;8.11;100.00;101884.16;5024121;28;20214;-66
2023/04/16 00:29:29;;;;;;;32.50;22.80;;;;;;;8.10;100.00;101888.38;5026314;28;20691;-65
2023/04/16 00:31:55;;;;;;;33.73;22.20;;;;;;;8.14;100.00;101882.59;5022486;28;20226;-66
2023/04/16 00:34:22;;;;;;;36.70;23.50;;;;;;;8.14;100.00;101881.72;5021661;28;20195;-65
2023/04/16 00:36:48;;;;;;;34.63;21.83;;;;;;;8.13;100.00;101888.53;5010057;28;20320;-66
2023/04/16 00:39:13;;;;;;;33.30;21.93;;;;;;;8.15;100.00;101891.16;5025218;28;20210;-66
2023/04/16 00:41:39;;;;;;;34.40;22.67;;;;;;;8.13;100.00;101885.09;5012078;28;20190;-67
2023/04/16 00:44:04;;;;;;;31.93;22.27;;;;;;;8.14;100.00;101885.16;5027909;28;20194;-66
2023/04/16 00:46:30;;;;;;;34.77;22.57;;;;;;;8.13;100.00;101883.41;5009838;28;20225;-66
2023/04/16 00:48:56;;;;;;;29.10;20.87;;;;;;;8.11;100.00;101885.00;5004770;28;20659;-66
2023/04/16 00:51:22;;;;;;;31.90;22.03;;;;;;;8.10;100.00;101883.28;5022141;28;20292;-67
2023/04/16 00:53:48;;;;;;;30.43;20.90;;;;;;;8.12;100.00;101889.34;5020214;28;20226;-66
2023/04/16 00:56:14;;;;;;;30.47;21.00;;;;;;;8.10;100.00;101873.06;5013300;28;20498;-70
2023/04/16 00:58:39;;;;;;;28.77;21.10;;;;;;;8.15;100.00;101876.69;5025480;28;20244;-68
2023/04/16 01:01:05;;;;;;;32.67;20.57;;;;;;;8.14;100.00;101877.50;5010029;28;20194;-66
2023/04/16 01:03:38;;;;;;;29.03;19.50;;;;;;;8.15;100.00;101876.69;5018867;28;20193;-67
2023/04/16 01:06:05;;;;;;;30.20;19.80;;;;;;;8.17;100.00;101881.88;5008891;28;20198;-66
2023/04/16 01:08:30;;;;;;;29.20;19.73;;;;;;;8.20;100.00;101884.56;5019699;28;20191;-67
2023/04/16 01:10:56;;;;;;;26.57;18.87;;;;;;;8.13;100.00;101880.88;5020103;28;20241;-67
2023/04/16 01:13:21;;;;;;;29.77;19.10;;;;;;;8.12;100.00;101886.78;5021605;28;20241;-67
2023/04/16 01:15:47;;;;;;;28.50;19.70;;;;;;;8.14;100.00;101892.81;5021421;28;20190;-66
2023/04/16 01:18:17;;;;;;;29.73;19.97;;;;;;;8.12;100.00;101888.44;5005240;28;20214;-66
2023/04/16 01:20:43;;;;;;;29.80;19.57;;;;;;;8.15;100.00;101896.25;5002286;28;20199;-65
2023/04/16 01:23:08;;;;;;;27.00;19.73;;;;;;;8.12;100.00;101893.53;5006913;28;20203;-67
2023/04/16 01:25:34;;;;;;;29.40;19.23;;;;;;;8.09;100.00;101901.94;5011013;28;20204;-66
2023/04/16 01:27:59;;;;;;;32.27;19.77;;;;;;;8.10;100.00;101898.56;5021637;28;20232;-69
2023/04/16 01:30:25;;;;;;;30.53;19.67;;;;;;;8.10;100.00;101898.56;4999938;28;20281;-67
2023/04/16 01:33:05;;;;;;;28.47;18.87;;;;;;;8.12;100.00;101896.09;5008045;28;20281;-67
2023/04/16 01:35:30;;;;;;;31.03;19.40;;;;;;;8.08;100.00;101905.28;5008708;28;20767;-67
2023/04/16 01:37:56;;;;;;;26.77;18.17;;;;;;;8.11;100.00;101905.41;5022844;28;20313;-68
2023/04/16 01:40:21;;;;;;;28.40;18.13;;;;;;;8.09;100.00;101908.69;5021950;28;20277;-67
2023/04/16 01:42:47;;;;;;;28.50;19.33;;;;;;;8.08;100.00;101912.06;5023516;28;20241;-67
2023/04/16 01:45:12;;;;;;;29.40;19.97;;;;;;;8.10;100.00;101916.44;5006108;28;20199;-67
2023/04/16 01:47:37;;;;;;;28.37;18.63;;;;;;;8.11;100.00;101914.75;5001579;28;20219;-68
2023/04/16 01:50:04;;;;;;;27.23;18.53;;;;;;;8.09;100.00;101921.44;5018512;28;20194;-65
2023/04/16 01:52:30;;;;;;;25.77;18.60;;;;;;;8.06;100.00;101914.53;5005230;28;20782;-66
2023/04/16 01:54:55;;;;;;;26.63;18.27;;;;;;;8.07;100.00;101916.28;5022058;28;20202;-67
2023/04/16 01:57:21;;;;;;;30.57;19.13;;;;;;;8.08;100.00;101922.25;5007196;28;20230;-66
2023/04/16 01:59:46;;;;;;;27.83;19.17;;;;;;;8.10;100.00;101920.63;5007016;28;20196;-67
2023/04/16 02:02:14;;;;;;;25.80;19.53;;;;;;;8.12;100.00;101926.69;5018684;28;20217;-66
2023/04/16 02:04:44;;;;;;;28.70;18.60;;;;;;;8.12;100.00;101925.03;5019953;28;20913;-67
2023/04/16 02:07:10;;;;;;;31.37;19.10;;;;;;;8.11;100.00;101927.50;5004433;28;20238;-66
2023/04/16 02:09:37;;;;;;;26.37;19.07;;;;;;;8.09;100.00;101921.44;5021982;28;20202;-67
2023/04/16 02:12:05;;;;;;;27.50;19.10;;;;;;;8.09;100.00;101930.00;5008237;28;20223;-66
2023/04/16 02:14:32;;;;;;;26.57;16.97;;;;;;;8.07;100.00;101930.72;5001528;28;20213;-69
2023/04/16 02:16:58;;;;;;;30.47;18.00;;;;;;;8.05;100.00;101932.31;5006869;28;20225;-66
2023/04/16 02:19:37;;;;;;;23.57;17.33;;;;;;;8.06;100.00;101934.09;5021739;28;21185;-65
2023/04/16 02:22:03;;;;;;;27.17;17.40;;;;;;;8.04;100.00;101936.56;5008319;28;20191;-65
2023/04/16 02:24:29;;;;;;;25.57;17.80;;;;;;;8.01;100.00;101944.06;5012075;28;20205;-65
2023/04/16 02:26:56;;;;;;;25.53;17.17;;;;;;;8.00;100.00;101938.88;5010761;28;20267;-66
2023/04/16 02:29:21;;;;;;;25.63;16.80;;;;;;;8.00;100.00;101943.97;5003093;28;20187;-69
2023/04/16 02:31:53;;;;;;;28.00;18.20;;;;;;;8.01;100.00;101948.28;5017880;28;20626;-71
2023/04/16 02:34:19;;;;;;;26.50;17.47;;;;;;;7.99;100.00;101942.22;5012853;28;20198;-66
2023/04/16 02:36:45;;;;;;;30.30;18.90;;;;;;;7.97;100.00;101942.16;5008155;28;20222;-65
2023/04/16 02:39:10;;;;;;;23.87;17.17;;;;;;;7.95;100.00;101948.88;5022607;28;20201;-67
2023/04/16 02:41:37;;;;;;;24.97;17.43;;;;;;;7.95;100.00;101950.53;5000759;28;20187;-68
2023/04/16 02:44:02;;;;;;;27.27;17.87;;;;;;;7.93;100.00;101950.47;5007523;28;20197;-66
2023/04/16 02:46:28;;;;;;;22.93;16.87;;;;;;;7.94;100.00;101943.69;5005178;28;20210;-67
2023/04/16 02:48:53;;;;;;;23.47;16.13;;;;;;;7.89;100.00;101943.50;5016684;28;20205;-66
2023/04/16 02:51:19;;;;;;;23.93;16.57;;;;;;;7.92;100.00;101945.31;5005267;28;20526;-66
2023/04/16 02:53:45;;;;;;;23.80;16.17;;;;;;;7.89;100.00;101957.91;5021247;28;20194;-69
2023/04/16 02:56:11;;;;;;;22.97;15.33;;;;;;;7.86;100.00;101950.09;5003280;28;20198;-67
2023/04/16 02:58:37;;;;;;;26.50;16.53;;;;;;;7.87;100.00;101955.28;5021330;28;20210;-67
2023/04/16 03:01:03;;;;;;;23.17;17.10;;;;;;;7.85;100.00;101954.34;5005099;28;20647;-66
2023/04/16 03:03:28;;;;;;;24.53;16.37;;;;;;;7.88;100.00;101946.81;5005442;28;20199;-66
2023/04/16 03:05:54;;;;;;;27.80;18.07;;;;;;;7.85;100.00;101954.34;5021923;28;20248;-65
2023/04/16 03:08:20;;;;;;;23.70;16.90;;;;;;;7.84;100.00;101955.13;5006935;28;20209;-66
2023/04/16 03:10:45;;;;;;;24.07;16.70;;;;;;;7.85;100.00;101954.34;5019710;28;20277;-67
2023/04/16 03:13:11;;;;;;;26.17;17.00;;;;;;;7.82;100.00;101954.19;5017459;28;20629;-65
2023/04/16 03:15:36;;;;;;;23.20;15.70;;;;;;;7.80;100.00;101952.38;5018640;28;20199;-66
2023/04/16 03:18:02;;;;;;;23.73;16.67;;;;;;;7.79;100.00;101953.16;5002843;28;20219;-68
2023/04/16 03:20:27;;;;;;;25.33;15.87;;;;;;;7.79;100.00;101956.56;5008348;28;20198;-67
2023/04/16 03:22:53;;;;;;;24.20;16.27;;;;;;;7.81;100.00;101955.00;4987782;28;20282;-65
2023/04/16 03:25:18;;;;;;;23.33;16.47;;;;;;;7.82;100.00;101953.28;5007074;28;20194;-66
2023/04/16 03:27:44;;;;;;;22.87;16.13;;;;;;;7.81;100.00;101962.63;5006680;28;20266;-67
2023/04/16 03:30:11;;;;;;;22.20;15.50;;;;;;;7.80;100.00;101955.81;5006168;28;20672;-72
2023/04/16 03:32:37;;;;;;;25.77;16.17;;;;;;;7.80;100.00;101954.91;5014920;28;20195;-67
2023/04/16 03:35:05;;;;;;;23.40;17.00;;;;;;;7.84;100.00;101961.91;5001150;28;20194;-64
2023/04/16 03:37:31;;;;;;;23.33;17.33;;;;;;;7.83;100.00;101967.81;5005010;28;20699;-69
2023/04/16 03:39:56;;;;;;;25.43;16.70;;;;;;;7.85;100.00;101962.00;5018609;28;20202;-68
2023/04/16 03:42:22;;;;;;;25.93;17.20;;;;;;;7.87;100.00;101959.53;5016330;28;20566;-66
2023/04/16 03:44:47;;;;;;;27.93;17.67;;;;;;;7.86;100.00;101961.19;5007072;28;20248;-74
2023/04/16 03:47:14;;;;;;;25.13;16.50;;;;;;;7.88;100.00;101966.38;5004120;28;20219;-68
2023/04/16 03:49:39;;;;;;;25.00;17.53;;;;;;;7.91;100.00;101964.81;5018449;28;20190;-67
2023/04/16 03:52:05;;;;;;;24.17;16.73;;;;;;;7.93;100.00;101965.75;5003783;28;20194;-67
2023/04/16 03:54:31;;;;;;;24.00;17.20;;;;;;;7.95;100.00;101963.28;5009638;28;20199;-67
2023/04/16 03:57:07;;;;;;;26.57;17.37;;;;;;;7.96;100.00;101970.13;4998953;28;20225;-66
2023/04/16 03:59:32;;;;;;;29.40;17.60;;;;;;;7.96;100.00;101971.00;5003995;28;20190;-68
2023/04/16 04:01:58;;;;;;;27.97;17.17;;;;;;;7.99;100.00;101965.19;5008487;28;20229;-68
2023/04/16 04:04:24;;;;;;;25.87;17.07;;;;;;;7.99;100.00;101968.63;5006898;28;20604;-65
2023/04/16 04:06:50;;;;;;;25.10;17.77;;;;;;;8.01;100.00;101966.16;5008732;28;20218;-68
2023/04/16 04:09:16;;;;;;;26.57;16.60;;;;;;;8.03;100.00;101977.28;5002167;28;20222;-68
2023/04/16 04:11:42;;;;;;;24.03;16.47;;;;;;;8.05;100.00;101968.00;5019756;28;20258;-66
2023/04/16 04:14:07;;;;;;;24.77;17.10;;;;;;;8.08;100.00;101980.94;5014450;28;20249;-67
2023/04/16 04:16:33;;;;;;;22.53;17.07;;;;;;;8.08;100.00;101978.38;5007166;28;20264;-67
2023/04/16 04:18:59;;;;;;;24.97;16.37;;;;;;;8.09;100.00;101985.22;5009960;28;20226;-67
2023/04/16 04:21:27;;;;;;;26.17;16.53;;;;;;;8.12;100.00;101983.72;5002265;28;20225;-68
2023/04/16 04:23:52;;;;;;;24.17;17.27;;;;;;;8.15;100.00;101988.06;5012873;28;20546;-68
2023/04/16 04:26:18;;;;;;;25.20;16.50;;;;;;;8.17;100.00;101989.00;5005483;28;20187;-66
2023/04/16 04:28:44;;;;;;;27.27;16.80;;;;;;;8.16;100.00;101992.38;5010258;28;20187;-69
2023/04/16 04:31:09;;;;;;;23.93;16.03;;;;;;;8.16;100.00;101997.47;5014843;28;20657;-68
2023/04/16 04:33:35;;;;;;;20.60;15.63;;;;;;;8.20;100.00;101995.16;5003889;28;20193;-66
2023/04/16 04:36:01;;;;;;;24.40;16.03;;;;;;;8.22;100.00;101996.13;5001906;28;20236;-66
2023/04/16 04:38:27;;;;;;;24.67;16.87;;;;;;;8.24;100.00;101994.50;5002474;28;20697;-65
2023/04/16 04:40:53;;;;;;;22.20;16.80;;;;;;;8.24;100.00;102002.16;5005380;28;20639;-67
2023/04/16 04:43:20;;;;;;;25.30;16.63;;;;;;;8.25;100.00;102005.59;5005529;28;20621;-66
2023/04/16 04:45:45;;;;;;;26.93;16.90;;;;;;;8.27;100.00;102001.44;5012824;28;20241;-68
2023/04/16 04:48:12;;;;;;;23.97;16.10;;;;;;;8.30;100.00;102005.00;4985710;28;20234;-67
2023/04/16 04:50:37;;;;;;;23.00;16.33;;;;;;;8.32;100.00;101999.97;5010799;28;20252;-66
2023/04/16 04:53:08;;;;;;;21.63;16.23;;;;;;;8.32;100.00;102007.63;5018723;28;20674;-66
2023/04/16 04:55:38;;;;;;;22.63;16.50;;;;;;;8.34;100.00;102001.78;5010200;28;20684;-66
2023/04/16 04:58:05;;;;;;;25.43;17.03;;;;;;;8.36;100.00;102012.94;5022103;28;20230;-66
2023/04/16 05:00:32;;;;;;;23.10;17.20;;;;;;;8.37;100.00;102008.69;5008761;28;20193;-68
2023/04/16 05:03:01;;;;;;;25.60;17.17;;;;;;;8.38;100.00;102007.94;5007472;28;20195;-66
2023/04/16 05:05:27;;;;;;;25.93;17.43;;;;;;;8.42;100.00;102013.22;5023887;28;20217;-68
2023/04/16 05:07:52;;;;;;;25.93;17.33;;;;;;;8.42;100.00;102009.78;5024960;28;20909;-66
2023/04/16 05:10:17;;;;;;;25.30;16.97;;;;;;;8.44;100.00;102013.31;5015336;28;20195;-69
2023/04/16 05:12:43;;;;;;;26.03;16.97;;;;;;;8.46;100.00;102017.69;5016763;28;20195;-66
2023/04/16 05:15:09;;;;;;;25.63;17.23;;;;;;;8.47;100.00;102016.00;5019718;28;20226;-66
2023/04/16 05:17:34;;;;;;;23.33;17.63;;;;;;;8.47;100.00;102016.00;5011332;28;20233;-67
2023/04/16 05:20:00;;;;;;;22.07;16.17;;;;;;;8.45;100.00;102015.94;5019422;28;20208;-68
2023/04/16 05:22:25;;;;;;;24.10;16.97;;;;;;;8.48;100.00;102025.41;5023746;28;20216;-66
2023/04/16 05:24:50;;;;;;;22.67;17.43;;;;;;;8.48;100.00;102016.06;5021243;28;20550;-69
2023/04/16 05:27:16;;;;;;;22.03;16.50;;;;;;;8.47;100.00;102026.22;5019780;28;20207;-68
2023/04/16 05:29:41;;;;;;;27.03;17.33;;;;;;;8.52;100.00;102024.75;5018541;28;20225;-70
2023/04/16 05:32:07;;;;;;;22.27;15.37;;;;;;;8.53;100.00;102027.34;5015040;28;20294;-67
2023/04/16 05:34:32;;;;;;;23.97;16.30;;;;;;;8.54;100.00;102033.34;5022084;28;20194;-68
2023/04/16 05:36:58;;;;;;;26.07;17.33;;;;;;;8.56;100.00;102032.59;5021247;28;20218;-65
2023/04/16 05:39:23;;;;;;;23.50;16.30;;;;;;;8.55;100.00;102032.53;5025208;28;20198;-66
2023/04/16 05:41:48;;;;;;;26.53;17.03;;;;;;;8.59;100.00;102040.41;5019105;28;20186;-66
2023/04/16 05:44:14;;;;;;;26.07;16.83;;;;;;;8.59;100.00;102037.88;5014224;28;20230;-65
2023/04/16 05:46:40;;;;;;;29.17;16.90;;;;;;;8.62;100.00;102042.25;5015116;28;21076;-68
2023/04/16 05:49:05;;;;;;;23.53;16.70;;;;;;;8.64;100.00;102044.06;5018389;28;20576;-67
2023/04/16 05:51:31;;;;;;;23.73;16.77;;;;;;;8.64;100.00;102045.72;5023428;28;20201;-67
2023/04/16 05:53:56;;;;;;;22.57;16.83;;;;;;;8.66;100.00;102039.03;5017117;28;20242;-65
2023/04/16 05:56:22;;;;;;;24.33;16.80;;;;;;;8.68;100.00;102047.63;5017174;28;20257;-67
2023/04/16 05:58:47;;;;;;;26.17;17.20;;;;;;;8.72;100.00;102050.41;5019429;28;20227;-66
2023/04/16 06:01:13;;;;;;;22.43;16.43;;;;;;;8.73;100.00;102056.34;5023319;28;20190;-69
2023/04/16 06:03:38;;;;;;;25.07;17.43;;;;;;;8.77;100.00;102056.59;5015618;28;20679;-65
2023/04/16 06:06:04;;;;;;;27.27;17.50;;;;;;;8.81;100.00;102047.38;5020258;28;20195;-66
2023/04/16 06:08:29;;;;;;;27.10;17.17;;;;;;;8.83;100.00;102053.41;5017172;28;20629;-67
2023/04/16 06:10:55;;;;;;;23.93;17.43;;;;;;;8.87;100.00;102057.88;5017800;28;20194;-67
2023/04/16 06:13:20;;;;;;;25.97;17.33;;;;;;;8.90;100.00;102055.47;5013158;28;20656;-67
2023/04/16 06:15:46;;;;;;;21.50;16.40;;;;;;;8.94;100.00;102052.25;5019656;28;20186;-69
2023/04/16 06:18:12;;;;;;;25.03;18.23;;;;;;;8.94;100.00;102055.66;5018794;28;20676;-66
2023/04/16 06:20:37;;;;;;;25.27;17.37;;;;;;;8.89;100.00;102058.81;5021093;28;20206;-66
2023/04/16 06:23:03;;;;;;;25.17;16.80;;;;;;;8.95;100.00;102059.97;5023085;28;20317;-68
2023/04/16 06:25:28;;;;;;;25.97;18.00;;;;;;;9.00;100.00;102060.19;5019954;28;20241;-66
2023/04/16 06:27:53;;;;;;;23.83;16.53;;;;;;;9.03;100.00;102062.88;5019283;28;20230;-67
2023/04/16 06:30:19;;;;;;;25.30;17.93;;;;;;;9.02;100.00;102067.09;5017590;28;20227;-65
2023/04/16 06:32:45;;;;;;;28.90;17.80;;;;;;;9.02;100.00;102069.66;5020419;28;20273;-66
2023/04/16 06:35:11;;;;;;;28.23;16.97;;;;;;;9.07;100.00;102075.00;5020181;28;20228;-67
2023/04/16 06:37:37;;;;;;;23.83;18.17;;;;;;;9.11;100.00;102067.50;5016945;28;20302;-67
2023/04/16 06:40:03;;;;;;;27.50;16.67;;;;;;;9.13;100.00;102080.38;5020141;28;20190;-68
2023/04/16 06:42:28;;;;;;;26.23;18.33;;;;;;;9.16;100.00;102081.38;5016794;28;20194;-67
2023/04/16 06:44:54;;;;;;;22.70;17.53;;;;;;;9.18;100.00;102077.22;5004976;28;24095;-68
2023/04/16 06:47:19;;;;;;;26.90;17.90;;;;;;;9.24;100.00;102079.16;5012780;28;20216;-66
2023/04/16 06:49:45;;;;;;;26.17;17.37;;;;;;;9.24;100.00;102085.16;4996055;28;20207;-66
2023/04/16 06:52:11;;;;;;;24.53;17.40;;;;;;;9.29;100.00;102081.09;5012538;28;20711;-67
2023/04/16 06:54:37;;;;;;;24.97;17.53;;;;;;;9.38;100.00;102085.75;4995819;28;20230;-68
2023/04/16 06:57:02;;;;;;;23.03;17.53;;;;;;;9.40;100.00;102079.03;5003723;28;20246;-69
2023/04/16 06:59:28;;;;;;;23.93;17.07;;;;;;;9.44;100.00;102081.78;5017960;28;20241;-66
2023/04/16 07:01:53;;;;;;;23.90;16.83;;;;;;;9.49;100.00;102084.53;5019300;28;20191;-68
2023/04/16 07:04:19;;;;;;;23.37;16.57;;;;;;;9.55;100.00;102084.81;5019307;28;20197;-69
2023/04/16 07:06:44;;;;;;;22.90;17.07;;;;;;;9.69;100.00;102086.25;5021736;28;20218;-69
2023/04/16 07:09:10;;;;;;;23.80;16.70;;;;;;;9.77;100.00;102087.47;5017539;28;20229;-69
2023/04/16 07:11:36;;;;;;;23.97;16.10;;;;;;;9.81;100.00;102094.47;5008926;28;20209;-70
2023/04/16 07:14:01;;;;;;;26.27;17.23;;;;;;;9.87;100.00;102095.56;5012589;28;20209;-70
2023/04/16 07:16:26;;;;;;;22.13;16.40;;;;;;;9.91;100.00;102094.91;5010805;28;20249;-70
2023/04/16 07:18:52;;;;;;;24.10;17.87;;;;;;;9.91;100.00;102086.38;5001055;28;20194;-68
2023/04/16 07:21:17;;;;;;;22.03;16.60;;;;;;;9.96;100.00;102093.41;5021557;28;20205;-71
2023/04/16 07:23:43;;;;;;;25.70;17.17;;;;;;;10.01;100.00;102097.06;5019951;28;20190;-67
2023/04/16 07:26:09;;;;;;;24.53;17.03;;;;;;;10.01;100.00;102102.19;5019993;28;20252;-66
2023/04/16 07:28:34;;;;;;;23.47;16.37;;;;;;;10.06;100.00;102098.16;5015472;28;20206;-70
2023/04/16 07:31:00;;;;;;;23.87;17.67;;;;;;;10.13;100.00;102109.53;5017057;28;20206;-68
2023/04/16 07:33:26;;;;;;;24.00;16.60;;;;;;;10.10;100.00;102109.38;5018890;28;20186;-67
2023/04/16 07:35:51;;;;;;;24.60;16.57;;;;;;;10.14;100.00;102112.13;5003150;28;20615;-68
2023/04/16 07:38:17;;;;;;;20.40;17.23;;;;;;;10.12;100.00;102113.75;5004994;28;20214;-68
2023/04/16 07:40:42;;;;;;;26.03;18.23;;;;;;;10.17;100.00;102116.50;5016422;28;20555;-69
2023/04/16 07:43:08;;;;;;;24.10;18.27;;;;;;;10.19;100.00;102112.31;5019202;28;20225;-66
2023/04/16 07:45:34;;;;;;;24.37;17.73;;;;;;;10.20;100.00;102112.41;5016017;28;20209;-68
2023/04/16 07:48:00;;;;;;;26.40;18.17;;;;;;;10.14;100.00;102114.69;5005581;28;20210;-68
2023/04/16 07:50:25;;;;;;;24.63;17.97;;;;;;;10.23;100.00;102130.41;5019182;28;20186;-67
2023/04/16 07:52:50;;;;;;;28.73;18.40;;;;;;;10.25;100.00;102126.25;5022033;28;20185;-68
2023/04/16 07:55:16;;;;;;;26.13;20.23;;;;;;;10.32;100.00;102127.38;5018551;28;20222;-66
2023/04/16 07:57:41;;;;;;;35.17;24.90;;;;;;;10.34;100.00;102120.63;5011184;28;20978;-68
2023/04/16 08:00:08;;;;;;;37.90;31.97;;;;;;;10.36;100.00;102119.88;5002499;28;20244;-67
2023/04/16 08:02:40;;;;;;;29.63;20.27;;;;;;;10.43;100.00;102121.88;5017444;28;20216;-67
2023/04/16 08:05:06;;;;;;;28.33;19.73;;;;;;;10.45;100.00;102121.91;5011492;28;20226;-68
2023/04/16 08:07:31;;;;;;;30.13;20.37;;;;;;;10.43;100.00;102129.56;5012747;28;20203;-68
2023/04/16 08:09:57;;;;;;;27.53;19.53;;;;;;;10.50;100.00;102126.41;5018327;28;20202;-66
2023/04/16 08:12:22;;;;;;;28.67;19.90;;;;;;;10.57;100.00;102131.00;5016825;28;20194;-68
2023/04/16 08:14:48;;;;;;;25.47;19.10;;;;;;;10.65;100.00;102128.72;5016270;28;20195;-67
2023/04/16 08:17:14;;;;;;;25.97;19.43;;;;;;;10.71;100.00;102128.97;5014557;28;20649;-67
2023/04/16 08:19:39;;;;;;;33.23;22.00;;;;;;;10.73;100.00;102132.47;5022352;28;20186;-68
2023/04/16 08:22:05;;;;;;;29.27;20.93;;;;;;;10.82;100.00;102138.81;5022554;28;20202;-67
2023/04/16 08:24:30;;;;;;;26.13;20.07;;;;;;;10.88;100.00;102133.91;5021050;28;20194;-67
2023/04/16 08:26:56;;;;;;;28.27;20.23;;;;;;;11.00;100.00;102147.22;5022247;28;20704;-67
2023/04/16 08:29:25;;;;;;;23.00;18.13;;;;;;;10.96;100.00;102140.22;5025162;28;20344;-67
2023/04/16 08:31:51;;;;;;;23.63;17.40;;;;;;;11.07;100.00;102158.56;5021825;28;20225;-68
2023/04/16 08:34:16;;;;;;;27.93;20.60;;;;;;;11.17;100.00;102146.19;5019322;28;20203;-67
2023/04/16 08:36:42;;;;;;;25.10;18.30;;;;;;;11.34;100.00;102157.91;5020373;28;20253;-69
2023/04/16 08:39:07;;;;;;;26.07;19.30;;;;;;;11.49;100.00;102150.81;5025763;28;20255;-68
2023/04/16 08:41:35;;;;;;;28.33;19.83;;;;;;;11.73;100.00;102156.84;5023147;28;20280;-68
2023/04/16 08:44:07;;;;;;;23.73;17.93;;;;;;;11.53;100.00;102160.34;5023674;28;20221;-68
2023/04/16 08:46:36;;;;;;;24.33;19.40;;;;;;;11.61;100.00;102163.25;5021742;28;20205;-67
2023/04/16 08:49:05;;;;;;;23.93;17.90;;;;;;;11.56;100.00;102157.91;5021684;28;20719;-67
2023/04/16 08:51:34;;;;;;;25.23;17.33;;;;;;;11.66;100.00;102169.41;5024713;28;20197;-68
2023/04/16 08:54:04;;;;;;;23.73;16.77;;;;;;;11.65;100.00;102168.53;5020015;28;20665;-68
2023/04/16 08:56:31;;;;;;;22.00;17.77;;;;;;;11.60;100.00;102164.03;5018829;28;20583;-68
2023/04/16 08:58:57;;;;;;;23.43;17.30;;;;;;;11.58;100.00;102176.81;5024517;28;20203;-66
2023/04/16 09:01:25;;;;;;;21.93;17.40;;;;;;;11.52;100.00;102168.84;5019473;28;20207;-66
2023/04/16 09:03:51;;;;;;;24.53;17.47;;;;;;;11.49;100.00;102176.47;5021689;28;20198;-68
2023/04/16 09:06:17;;;;;;;21.33;16.63;;;;;;;11.38;100.00;102171.75;5022225;28;20647;-67
2023/04/16 09:08:45;;;;;;;23.53;17.23;;;;;;;11.45;100.00;102178.84;5020397;28;20219;-68
2023/04/16 09:11:12;;;;;;;21.00;16.83;;;;;;;11.56;100.00;102170.72;5024862;28;20216;-67
2023/04/16 09:13:38;;;;;;;22.17;16.83;;;;;;;11.95;100.00;102174.75;5024947;28;20508;-67
2023/04/16 09:16:05;;;;;;;21.60;16.83;;;;;;;12.13;100.00;102174.53;5021820;28;20199;-68
2023/04/16 09:18:31;;;;;;;23.03;16.83;;;;;;;12.58;100.00;102164.06;5017846;28;20233;-68
2023/04/16 09:20:56;;;;;;;20.07;15.63;;;;;;;12.84;100.00;102149.47;5021572;28;20214;-68
2023/04/16 09:23:23;;;;;;;20.97;16.10;;;;;;;12.94;100.00;102151.50;5026847;28;20209;-67
2023/04/16 09:25:49;;;;;;;22.03;16.37;;;;;;;13.02;100.00;102149.22;5025405;28;20561;-67
2023/04/16 09:28:49;;;;;;;24.43;17.20;;;;;;;13.10;100.00;102137.44;5006837;28;20207;-66
2023/04/16 09:31:18;;;;;;;16.80;14.67;;;;;;;13.49;100.00;102107.72;5022946;28;20195;-66
2023/04/16 09:34:01;;;;;;;19.70;15.77;;;;;;;13.69;100.00;102138.34;5021834;28;20197;-67
2023/04/16 09:36:27;;;;;;;18.83;15.20;;;;;;;13.29;100.00;102143.19;5025112;28;20294;-66
2023/04/16 09:38:53;;;;;;;18.57;15.07;;;;;;;13.06;100.00;102169.91;5007453;28;20352;-66
2023/04/16 09:41:23;;;;;;;19.07;15.67;;;;;;;12.69;100.00;102177.28;5016420;28;20195;-66
2023/04/16 09:43:56;;;;;;;17.97;15.80;;;;;;;12.59;100.00;102204.34;5016497;28;20183;-66
2023/04/16 09:46:43;;;;;;;20.87;15.20;;;;;;;12.58;100.00;102199.19;5009434;28;20214;-67
2023/04/16 09:49:16;;;;;;;18.10;14.40;;;;;;;12.50;100.00;102191.19;5016595;28;20214;-67
2023/04/16 09:51:43;;;;;;;17.60;13.53;;;;;;;12.42;100.00;102202.06;5020392;28;20206;-67
2023/04/16 09:54:08;;;;;;;17.27;13.53;;;;;;;12.30;100.00;102202.50;5017907;28;20191;-67
2023/04/16 09:56:45;;;;;;;15.20;13.60;;;;;;;12.14;100.00;102212.22;5024462;28;20602;-66
2023/04/16 09:59:20;;;;;;;15.73;13.43;;;;;;;12.19;100.00;102203.84;5023690;28;20200;-66
2023/04/16 10:01:48;;;;;;;15.97;12.47;;;;;;;12.37;100.00;102211.31;5015330;28;20656;-67
2023/04/16 10:04:14;;;;;;;16.33;12.47;;;;;;;12.37;100.00;102203.59;5002466;28;20279;-66
2023/04/16 10:06:39;;;;;;;14.37;12.83;;;;;;;12.39;100.00;102205.41;5019899;28;20734;-67
2023/04/16 10:09:09;;;;;;;16.27;13.03;;;;;;;12.32;100.00;102210.28;5025490;28;20284;-67
2023/04/16 10:11:35;;;;;;;15.03;12.97;;;;;;;12.33;100.00;102225.75;5019437;28;20205;-66
2023/04/16 10:14:01;;;;;;;17.37;13.60;;;;;;;12.26;100.00;102228.06;5024939;28;20210;-67
2023/04/16 10:16:28;;;;;;;18.87;12.90;;;;;;;12.03;100.00;102240.06;5018602;28;20345;-66
2023/04/16 10:18:55;;;;;;;16.77;13.60;;;;;;;11.79;100.00;102239.19;5019390;28;20998;-67
2023/04/16 10:21:21;;;;;;;17.93;12.97;;;;;;;11.75;100.00;102234.75;5017874;28;20309;-66
2023/04/16 10:23:48;;;;;;;16.60;13.50;;;;;;;11.73;100.00;102222.69;5014790;28;20736;-66
2023/04/16 10:26:16;;;;;;;17.20;13.50;;;;;;;11.79;100.00;102221.22;5015248;28;20281;-66
2023/04/16 10:28:44;;;;;;;17.07;13.60;;;;;;;11.78;100.00;102234.88;5019982;28;20278;-66
2023/04/16 10:31:11;;;;;;;19.80;13.63;;;;;;;11.75;100.00;102227.06;5020912;28;20198;-66
2023/04/16 10:33:40;;;;;;;16.93;13.87;;;;;;;11.71;100.00;102234.59;5021031;28;20218;-67
2023/04/16 10:36:12;;;;;;;20.03;14.03;;;;;;;11.82;100.00;102236.75;5016058;28;20854;-66
2023/04/16 10:38:46;;;;;;;16.83;13.73;;;;;;;11.81;100.00;102239.25;5018630;28;20215;-69
2023/04/16 10:41:11;;;;;;;17.23;13.20;;;;;;;11.96;100.00;102240.69;5019823;28;20224;-68
2023/04/16 10:43:42;;;;;;;17.00;13.67;;;;;;;12.11;100.00;102241.22;5023346;28;20219;-66
2023/04/16 10:46:25;;;;;;;16.63;13.40;;;;;;;12.15;100.00;102242.19;5015890;28;20592;-68
2023/04/16 10:48:55;;;;;;;19.23;13.90;;;;;;;12.13;100.00;102243.84;5021551;28;20901;-67
2023/04/16 10:51:26;;;;;;;18.00;13.23;;;;;;;12.06;100.00;102240.19;5017043;28;20199;-66
2023/04/16 10:54:01;;;;;;;17.10;13.63;;;;;;;11.93;100.00;102222.59;5022592;28;20194;-69
2023/04/16 10:56:31;;;;;;;14.70;12.30;;;;;;;11.96;100.00;102240.69;5018962;28;20213;-69
2023/04/16 10:58:57;;;;;;;15.93;13.73;;;;;;;12.13;100.00;102231.88;5017759;28;20223;-68
2023/04/16 11:01:43;;;;;;;17.60;13.77;;;;;;;11.87;100.00;102234.31;5016222;28;20190;-68
2023/04/16 11:04:20;;;;;;;16.63;13.23;;;;;;;11.98;100.00;102248.44;5000621;28;20305;-68